events-overview

Kinetic Half

 

Relays

Lake Anna State Park - Spotsylvania, VA 5/08/2010 08:00AM

** Results are for the private use of participants and are the Intellectual Property of Set Up Events. Unauthorized use of these results is prohibited.

Place T Bib Team Rank SWIM Rank T1 Rank BIKE Rank T2 Rank RUN PENALTY TIME DQ
1X650VO2 'LAX100:19:23400:00:40302:39:43200:00:32101:29:43 04:29:58 
2X6253 GUYS200:19:23100:00:32202:36:15100:00:29401:37:22 04:34:00 
3X634RACE ABOVE1800:37:22500:00:40602:53:26300:00:32201:34:53 05:06:52 
4X631LESS THAN STELLAR400:22:23300:00:39802:59:23500:00:33901:48:34 05:11:30 
5X627BUNCHA NERDS500:23:38600:00:43903:03:42700:00:36701:44:42 05:13:20 
6X636SOME OLD GUYS HAVING FUN300:22:152300:01:12402:49:491800:00:501002:00:58 05:15:02 
7X632MEAT AND POTATOES600:23:501100:00:461403:12:581000:00:44501:39:00 05:17:16 
8X639TEAM CCL1200:30:281400:00:53702:54:11400:00:331102:02:44 05:28:46 
9X646THE GIMPY JELLYFISH1500:34:281800:00:581603:16:361400:00:47301:36:29 05:29:16 
10X637STU'S CREW1000:27:011600:00:551003:05:592400:01:351302:03:56 05:39:24 
11X651WILL PLAY FOR GUMBO800:24:541200:00:471703:20:261600:00:471202:03:53 05:50:45 
12X640TEAM GREEN2500:48:582700:05:52102:18:432500:14:412002:25:19 05:53:33Y
13X644TEAM VOICE1600:34:522200:01:021103:08:592200:01:101602:11:11 05:57:12 
14X645TEAM Z ARTHAUD900:25:091900:00:592203:42:522000:01:00801:47:42 05:57:40 
15X647THE Z AMIGOS1100:29:001000:00:461203:10:151900:00:521902:20:47 06:01:38 
16X641TEAM SCOTTY MCHOTTIE700:24:112500:01:161303:10:362100:01:042102:28:30 06:05:36 
17X630LADY K'S2400:44:111500:00:541503:15:24600:00:351402:05:34 06:06:35 
18X648TRYS - R - US1700:35:012000:01:002303:46:06800:00:38601:44:33 06:07:17 
19X629GEN X1900:39:01200:00:39502:51:441300:00:462402:42:26 06:14:34 
20X642TEAM TIGER    2403:51:091500:00:471802:16:14 06:28:58Y
21X633OIL BEEF HOOKED!2200:43:39900:00:452003:36:181100:00:441702:11:46 06:33:10 
22X653ZORROZ2600:50:26700:00:452103:37:331700:00:501502:09:34 06:39:05 
23X628DOUBLE TROUBLE2700:52:431300:00:471803:24:511200:00:452202:31:00 06:50:05 
24X643TEAM TRI ADDICTS2300:44:091700:00:571903:26:28900:00:412302:38:59 06:51:13 
25X638SWIM BIKE RUN DONE!1300:30:492100:01:02       06:59:31 
26X652YES WE CAN!1400:34:18800:00:452503:55:522300:01:312502:49:11 07:21:35 
27X635SHOULDA DONE THE SPRINT2100:40:532600:01:172604:29:06       
28X649UNDER PRESSURE2000:40:522400:01:12         

** Results are for the private use of participants and are the Intellectual Property of Set Up Events. Unauthorized use of these results is prohibited.